createdAt,value
2022-10-11T00:00:47.163Z,2.30
2022-10-11T00:03:51.234Z,2.20
2022-10-11T00:06:54.651Z,2.00
2022-10-11T00:09:57.483Z,2.20
2022-10-11T00:13:00.417Z,2.15
2022-10-11T00:16:08.866Z,1.95
2022-10-11T00:19:13.014Z,2.30
2022-10-11T00:22:15.764Z,2.50
2022-10-11T00:25:18.683Z,2.38
2022-10-11T00:28:21.379Z,2.60
2022-10-11T00:31:24.599Z,2.60
2022-10-11T00:34:29.014Z,2.40
2022-10-11T00:37:31.649Z,2.40
2022-10-11T00:40:34.524Z,2.17
2022-10-11T00:43:37.589Z,2.42
2022-10-11T00:46:43.560Z,2.97
2022-10-11T00:49:51.828Z,2.55
2022-10-11T00:53:01.362Z,2.70
2022-10-11T00:56:08.049Z,2.22
2022-10-11T00:59:15.445Z,2.33
2022-10-11T01:02:19.833Z,2.65
2022-10-11T01:05:31.688Z,2.30
2022-10-11T01:08:35.097Z,2.30
2022-10-11T01:11:40.442Z,1.92
2022-10-11T01:15:09.970Z,2.22
2022-10-11T01:18:19.276Z,2.42
2022-10-11T01:21:39.387Z,2.28
2022-10-11T01:25:01.505Z,3.00
2022-10-11T01:28:21.429Z,2.33
2022-10-11T01:31:29.686Z,2.88
2022-10-11T01:34:38.083Z,2.97
2022-10-11T01:37:45.528Z,3.28
2022-10-11T01:40:51.732Z,3.10
2022-10-11T01:43:59.597Z,3.83
2022-10-11T01:47:03.545Z,3.15
2022-10-11T01:50:08.000Z,3.60
2022-10-11T01:53:25.943Z,4.05
2022-10-11T01:56:43.797Z,3.83
2022-10-11T02:00:00.293Z,4.32
2022-10-11T02:03:18.667Z,4.05
2022-10-11T02:06:31.148Z,4.50
2022-10-11T02:09:38.773Z,3.63
2022-10-11T02:12:45.008Z,4.25
2022-10-11T02:15:50.491Z,4.07
2022-10-11T02:18:57.730Z,4.85
2022-10-11T02:22:05.081Z,5.03
2022-10-11T02:25:11.086Z,6.05
2022-10-11T02:28:17.559Z,5.35
2022-10-11T02:31:21.894Z,5.70
2022-10-11T02:34:28.991Z,5.80
2022-10-11T02:37:36.272Z,5.43
2022-10-11T02:40:42.714Z,5.70
2022-10-11T02:43:51.814Z,5.60
2022-10-11T02:46:55.632Z,6.03
2022-10-11T02:50:00.986Z,5.60
2022-10-11T02:53:04.649Z,6.05
2022-10-11T02:56:08.193Z,6.30
2022-10-11T02:59:11.485Z,7.00
2022-10-11T03:02:14.146Z,6.57
2022-10-11T03:05:18.634Z,6.22
2022-10-11T03:08:21.244Z,7.72
2022-10-11T03:11:23.913Z,7.40
2022-10-11T03:14:26.602Z,6.82
2022-10-11T03:17:36.525Z,7.03
2022-10-11T03:20:41.546Z,6.30
2022-10-11T03:23:44.177Z,6.45
2022-10-11T03:26:46.957Z,6.50
2022-10-11T03:29:49.569Z,7.07
2022-10-11T03:32:52.253Z,5.57
2022-10-11T03:35:56.290Z,7.32
2022-10-11T03:39:03.535Z,6.25
2022-10-11T03:42:10.694Z,7.03
2022-10-11T03:45:15.727Z,7.90
2022-10-11T03:48:20.930Z,8.25
2022-10-11T03:51:27.738Z,7.10
2022-10-11T03:54:34.559Z,6.68
2022-10-11T03:57:39.387Z,8.25
2022-10-11T04:00:44.434Z,9.75
2022-10-11T04:03:49.505Z,8.55
2022-10-11T04:06:56.577Z,8.43
2022-10-11T04:10:01.674Z,9.48
2022-10-11T04:13:06.892Z,8.20
2022-10-11T04:16:11.936Z,8.90
2022-10-11T04:19:16.996Z,8.95
2022-10-11T04:22:23.689Z,8.38
2022-10-11T04:25:28.832Z,9.20
2022-10-11T04:28:33.853Z,9.35
2022-10-11T04:31:38.610Z,9.30
2022-10-11T04:34:43.893Z,10.13
2022-10-11T04:37:50.432Z,9.07
2022-10-11T04:40:55.475Z,8.63
2022-10-11T04:44:00.502Z,8.63
2022-10-11T04:47:06.558Z,7.88
2022-10-11T04:50:12.897Z,7.70
2022-10-11T04:53:19.310Z,7.53
2022-10-11T04:56:24.194Z,8.38
2022-10-11T04:59:29.451Z,7.20
2022-10-11T05:02:34.344Z,8.85
2022-10-11T05:05:39.191Z,9.18
2022-10-11T05:08:48.627Z,8.30
2022-10-11T05:11:59.066Z,9.43
2022-10-11T05:15:04.054Z,9.27
2022-10-11T05:18:08.924Z,8.98
2022-10-11T05:21:18.683Z,8.50
2022-10-11T05:24:27.472Z,8.80
2022-10-11T05:27:32.368Z,8.65
2022-10-11T05:30:37.629Z,11.00
2022-10-11T05:33:42.882Z,9.57
2022-10-11T05:36:49.163Z,9.80
2022-10-11T05:39:56.370Z,7.70
2022-10-11T05:43:02.192Z,9.20
2022-10-11T05:46:07.716Z,7.90
2022-10-11T05:49:13.081Z,9.32
2022-10-11T05:52:20.958Z,8.73
2022-10-11T05:55:28.565Z,9.23
2022-10-11T05:58:33.739Z,9.63
2022-10-11T06:01:39.500Z,8.10
2022-10-11T06:04:44.751Z,8.13
2022-10-11T06:07:49.822Z,8.45
2022-10-11T06:10:56.343Z,8.80
2022-10-11T06:14:01.326Z,8.73
2022-10-11T06:17:06.154Z,7.70
2022-10-11T06:20:12.152Z,8.70
2022-10-11T06:23:16.943Z,9.27
2022-10-11T06:26:23.598Z,7.65
2022-10-11T06:29:28.926Z,8.15
2022-10-11T06:32:34.132Z,7.18
2022-10-11T06:35:39.074Z,8.10
2022-10-11T06:38:45.415Z,8.35
2022-10-11T06:41:52.099Z,8.73
2022-10-11T06:44:56.755Z,8.30
2022-10-11T06:48:06.239Z,8.48
2022-10-11T06:51:11.041Z,8.32
2022-10-11T06:54:16.043Z,9.45
2022-10-11T06:57:22.487Z,8.10
2022-10-11T07:00:27.924Z,8.93
2022-10-11T07:03:33.955Z,8.73
2022-10-11T07:06:41.542Z,8.48
2022-10-11T07:09:47.213Z,8.10
2022-10-11T07:12:54.385Z,8.20
2022-10-11T07:15:59.421Z,8.50
2022-10-11T07:19:06.706Z,8.18
2022-10-11T07:22:11.561Z,8.38
2022-10-11T07:25:16.298Z,7.97
2022-10-11T07:28:47.341Z,7.38
2022-10-11T07:31:52.261Z,8.05
2022-10-11T07:34:57.335Z,7.85
2022-10-11T07:38:02.740Z,7.47
2022-10-11T07:41:08.317Z,8.18
2022-10-11T07:44:14.879Z,8.32
2022-10-11T07:47:21.520Z,8.35
2022-10-11T07:50:27.934Z,7.97
2022-10-11T07:53:32.835Z,7.88
2022-10-11T07:56:40.782Z,8.07
2022-10-11T07:59:50.230Z,8.27
2022-10-11T08:02:55.154Z,7.13
2022-10-11T08:06:04.021Z,7.32
2022-10-11T08:09:09.664Z,8.45
2022-10-11T08:12:14.481Z,8.40
2022-10-11T08:15:20.969Z,7.57
2022-10-11T08:18:27.977Z,8.75
2022-10-11T08:21:35.964Z,7.32
2022-10-11T08:24:40.944Z,7.63
2022-10-11T08:27:45.881Z,8.18
2022-10-11T08:30:53.293Z,8.05
2022-10-11T08:33:58.352Z,8.40
2022-10-11T08:37:02.998Z,8.73
2022-10-11T08:40:09.587Z,8.07
2022-10-11T08:43:25.420Z,8.10
2022-10-11T08:46:35.624Z,7.60
2022-10-11T08:49:41.831Z,8.55
2022-10-11T08:52:52.938Z,8.00
2022-10-11T08:55:57.966Z,8.25
2022-10-11T08:59:07.654Z,7.85
2022-10-11T09:02:31.760Z,7.95
2022-10-11T09:06:03.559Z,8.40
2022-10-11T09:09:23.421Z,8.07
2022-10-11T09:12:40.962Z,7.88
2022-10-11T09:15:54.273Z,8.25
2022-10-11T09:19:19.974Z,8.18
2022-10-11T09:22:31.114Z,7.43
2022-10-11T09:25:40.517Z,8.57
2022-10-11T09:29:00.919Z,9.48
2022-10-11T09:32:15.815Z,8.05
2022-10-11T09:35:24.188Z,8.70
2022-10-11T09:38:39.598Z,9.23
2022-10-11T09:41:51.663Z,9.85
2022-10-11T09:44:54.924Z,8.30
2022-10-11T09:48:00.644Z,7.60
2022-10-11T09:51:12.190Z,8.23
2022-10-11T09:54:14.857Z,8.02
2022-10-11T09:57:21.553Z,7.28
2022-10-11T10:00:26.010Z,7.68
2022-10-11T10:03:31.073Z,8.30
2022-10-11T10:06:35.346Z,8.35
2022-10-11T10:09:37.948Z,7.88
2022-10-11T10:12:41.117Z,8.13
2022-10-11T10:15:47.963Z,7.28
2022-10-11T10:18:54.195Z,7.93
2022-10-11T10:21:58.648Z,7.32
2022-10-11T10:25:05.981Z,7.50
2022-10-11T10:28:19.986Z,8.20
2022-10-11T10:31:24.932Z,8.32
2022-10-11T10:34:31.038Z,7.80
2022-10-11T10:37:39.579Z,7.43
2022-10-11T10:40:45.225Z,8.65
2022-10-11T10:43:53.552Z,7.97
2022-10-11T10:47:07.514Z,7.53
2022-10-11T10:50:17.957Z,7.70
2022-10-11T10:53:28.551Z,6.53
2022-10-11T10:56:39.066Z,7.00
2022-10-11T10:59:55.191Z,7.13
2022-10-11T11:03:02.074Z,6.70
2022-10-11T11:06:08.563Z,7.90
2022-10-11T11:09:29.194Z,6.32
2022-10-11T11:12:46.016Z,7.03
2022-10-11T11:15:59.568Z,6.63
2022-10-11T11:19:08.094Z,6.55
2022-10-11T11:22:21.272Z,6.68
2022-10-11T11:25:35.328Z,6.47
2022-10-11T11:28:50.812Z,6.20
2022-10-11T11:32:11.748Z,6.43
2022-10-11T11:35:27.230Z,6.20
2022-10-11T11:38:42.185Z,5.60
2022-10-11T11:41:50.937Z,6.70
2022-10-11T11:44:54.512Z,6.07
2022-10-11T11:48:03.045Z,6.70
2022-10-11T11:51:11.370Z,6.80
2022-10-11T11:54:30.496Z,5.60
2022-10-11T11:57:49.854Z,6.63
2022-10-11T12:00:58.008Z,5.78
2022-10-11T12:04:05.974Z,5.93
2022-10-11T12:07:16.244Z,5.15
2022-10-11T12:10:28.850Z,6.40
2022-10-11T12:13:36.885Z,5.72
2022-10-11T12:17:15.632Z,5.75
2022-10-11T12:20:25.332Z,6.15
2022-10-11T12:23:49.190Z,5.10
2022-10-11T12:26:56.399Z,6.38
2022-10-11T12:29:59.021Z,5.60
2022-10-11T12:33:13.628Z,5.50
2022-10-11T12:36:37.658Z,5.20
2022-10-11T12:39:48.418Z,5.05
2022-10-11T12:43:20.852Z,5.28
2022-10-11T12:46:59.530Z,4.47
2022-10-11T12:50:16.636Z,5.88
2022-10-11T12:53:31.587Z,4.97
2022-10-11T12:56:50.771Z,5.35
2022-10-11T12:59:53.717Z,5.28
2022-10-11T13:03:00.882Z,5.45
2022-10-11T13:06:15.032Z,5.63
2022-10-11T13:09:28.517Z,6.13
2022-10-11T13:12:36.955Z,4.85
2022-10-11T13:15:44.877Z,5.13
2022-10-11T13:18:49.905Z,4.75
2022-10-11T13:21:56.798Z,4.43
2022-10-11T13:24:59.464Z,5.10
2022-10-11T13:28:02.097Z,4.55
2022-10-11T13:31:05.663Z,5.50
2022-10-11T13:34:12.090Z,5.30
2022-10-11T13:37:20.481Z,4.65
2022-10-11T13:40:24.189Z,4.97
2022-10-11T13:43:29.813Z,4.75
2022-10-11T13:46:34.329Z,5.05
2022-10-11T13:49:39.796Z,4.28
2022-10-11T13:52:56.196Z,4.63
2022-10-11T13:56:00.877Z,4.82
2022-10-11T13:59:04.029Z,5.55
2022-10-11T14:02:18.868Z,4.82
2022-10-11T14:05:29.542Z,5.22
2022-10-11T14:08:38.673Z,4.57
2022-10-11T14:11:41.369Z,4.28
2022-10-11T14:14:44.449Z,5.72
2022-10-11T14:17:47.134Z,4.72
2022-10-11T14:20:49.797Z,4.90
2022-10-11T14:23:55.795Z,6.20
2022-10-11T14:26:59.072Z,5.45
2022-10-11T14:30:28.216Z,5.25
2022-10-11T14:33:24.574Z,4.95
2022-10-11T14:36:27.574Z,5.50
2022-10-11T14:39:33.583Z,4.80
2022-10-11T14:42:36.265Z,5.47
2022-10-11T14:45:38.945Z,5.47
2022-10-11T14:48:55.044Z,4.95
2022-10-11T14:51:59.669Z,4.97
2022-10-11T14:55:03.789Z,5.13
2022-10-11T14:58:08.196Z,4.93
2022-10-11T15:01:13.309Z,4.95
2022-10-11T15:04:15.997Z,5.30
2022-10-11T15:07:19.013Z,4.82
2022-10-11T15:10:26.000Z,5.30
2022-10-11T15:13:28.608Z,5.07
2022-10-11T15:16:31.462Z,5.43
2022-10-11T15:19:34.074Z,5.28
2022-10-11T15:22:36.745Z,4.47
2022-10-11T15:25:42.201Z,5.40
2022-10-11T15:28:45.226Z,5.03
2022-10-11T15:31:49.211Z,5.68
2022-10-11T15:34:51.858Z,4.57
2022-10-11T15:37:59.270Z,5.63
2022-10-11T15:41:09.601Z,4.53
2022-10-11T15:44:15.435Z,4.75
2022-10-11T15:47:23.520Z,4.78
2022-10-11T15:50:40.507Z,4.40
2022-10-11T15:53:47.387Z,5.85
2022-10-11T15:56:54.689Z,5.10
2022-10-11T16:00:00.232Z,5.20
2022-10-11T16:03:09.069Z,5.25
2022-10-11T16:06:16.824Z,5.40
2022-10-11T16:09:23.046Z,5.07
2022-10-11T16:12:33.284Z,6.13
2022-10-11T16:15:43.031Z,5.80
2022-10-11T16:19:00.562Z,4.80
2022-10-11T16:22:20.139Z,5.13
2022-10-11T16:25:30.439Z,5.03
2022-10-11T16:28:43.477Z,5.25
2022-10-11T16:31:54.522Z,5.93
2022-10-11T16:35:10.420Z,4.78
2022-10-11T16:38:22.301Z,4.80
2022-10-11T16:41:37.483Z,4.15
2022-10-11T16:44:55.003Z,5.20
2022-10-11T16:48:06.500Z,5.25
2022-10-11T16:51:14.487Z,4.72
2022-10-11T16:54:22.922Z,4.90
2022-10-11T16:57:35.045Z,4.43
2022-10-11T17:00:49.778Z,4.60
2022-10-11T17:03:59.849Z,3.97
2022-10-11T17:07:12.728Z,4.22
2022-10-11T17:10:39.732Z,5.32
2022-10-11T17:13:47.200Z,4.45
2022-10-11T17:16:56.526Z,4.47
2022-10-11T17:20:04.632Z,4.78
2022-10-11T17:23:11.000Z,4.40
2022-10-11T17:26:20.783Z,4.65
2022-10-11T17:29:26.721Z,5.00
2022-10-11T17:32:37.004Z,4.82
2022-10-11T17:35:43.406Z,3.78
2022-10-11T17:38:49.683Z,4.63
2022-10-11T17:41:56.299Z,4.85
2022-10-11T17:45:02.757Z,5.32
2022-10-11T17:48:15.044Z,4.88
2022-10-11T17:51:26.823Z,4.50
2022-10-11T17:54:33.385Z,4.47
2022-10-11T17:57:39.383Z,5.30
2022-10-11T18:00:47.157Z,5.32
2022-10-11T18:04:00.317Z,5.40
2022-10-11T18:07:09.203Z,5.80
2022-10-11T18:10:15.970Z,5.55
2022-10-11T18:13:22.830Z,5.03
2022-10-11T18:16:34.035Z,5.65
2022-10-11T18:19:47.524Z,5.30
2022-10-11T18:22:58.682Z,5.10
2022-10-11T18:26:24.418Z,6.13
2022-10-11T18:29:38.628Z,5.47
2022-10-11T18:32:45.032Z,5.70
2022-10-11T18:36:09.800Z,5.68
2022-10-11T18:39:19.188Z,5.55
2022-10-11T18:42:29.191Z,5.40
2022-10-11T18:45:37.716Z,5.80
2022-10-11T18:48:54.285Z,5.03
2022-10-11T18:52:08.401Z,5.35
2022-10-11T18:55:16.251Z,5.68
2022-10-11T18:58:25.257Z,6.60
2022-10-11T19:01:34.690Z,6.03
2022-10-11T19:04:43.880Z,5.90
2022-10-11T19:11:56.431Z,5.50
2022-10-11T19:15:14.897Z,5.47
2022-10-11T19:18:49.448Z,5.20
2022-10-11T19:22:13.631Z,5.65
2022-10-11T19:25:56.850Z,5.53
2022-10-11T19:29:09.941Z,6.13
2022-10-11T19:32:19.011Z,7.07
2022-10-11T19:35:35.704Z,6.97
2022-10-11T19:38:52.116Z,6.55
2022-10-11T19:42:07.232Z,6.57
2022-10-11T19:45:16.123Z,6.55
2022-10-11T19:48:26.083Z,5.75
2022-10-11T19:51:45.980Z,5.57
2022-10-11T19:54:55.909Z,6.10
2022-10-11T19:58:08.194Z,5.65
2022-10-11T20:01:18.805Z,6.13
2022-10-11T20:04:51.640Z,5.60
2022-10-11T20:07:59.607Z,5.60
2022-10-11T20:14:44.782Z,5.30
2022-10-11T20:17:52.574Z,5.63
2022-10-11T20:21:00.157Z,6.72
2022-10-11T20:24:09.652Z,5.70
2022-10-11T20:27:15.498Z,5.85
2022-10-11T20:30:23.512Z,6.18
2022-10-11T20:33:28.035Z,5.60
2022-10-11T20:36:32.791Z,6.68
2022-10-11T20:39:41.759Z,5.90
2022-10-11T20:42:46.527Z,5.07
2022-10-11T20:46:10.227Z,5.50
2022-10-11T20:49:16.898Z,5.78
2022-10-11T20:52:34.326Z,5.85
2022-10-11T20:55:59.703Z,5.82
2022-10-11T20:59:12.443Z,6.53
2022-10-11T21:02:43.319Z,5.85
2022-10-11T21:06:17.822Z,6.10
2022-10-11T21:09:28.968Z,6.15
2022-10-11T21:12:40.102Z,5.93
2022-10-11T21:15:58.160Z,5.40
2022-10-11T21:19:07.132Z,4.90
2022-10-11T21:22:13.495Z,6.93
2022-10-11T21:25:20.443Z,5.55
2022-10-11T21:28:27.593Z,7.07
2022-10-11T21:31:36.400Z,6.55
2022-10-11T21:34:46.159Z,6.63
2022-10-11T21:37:53.620Z,6.70
2022-10-11T21:40:59.889Z,7.20
2022-10-11T21:44:10.931Z,7.30
2022-10-11T21:47:19.515Z,7.00
2022-10-11T21:50:31.068Z,7.13
2022-10-11T21:53:37.439Z,6.22
2022-10-11T21:56:44.497Z,5.82
2022-10-11T22:15:20.690Z,5.85
2022-10-11T22:18:33.102Z,6.72
2022-10-11T22:21:45.710Z,5.65
2022-10-11T22:24:58.940Z,6.20
2022-10-11T22:28:10.297Z,5.57
2022-10-11T22:31:26.013Z,6.10
2022-10-11T22:34:38.427Z,5.80
2022-10-11T22:37:51.343Z,6.00
2022-10-11T22:41:03.547Z,6.45
2022-10-11T22:44:16.091Z,6.45
2022-10-11T22:47:28.460Z,6.95
2022-10-11T22:50:35.745Z,5.85
2022-10-11T22:53:45.338Z,7.43
2022-10-11T22:56:55.255Z,7.30
2022-10-11T23:00:03.235Z,7.82
2022-10-11T23:03:12.343Z,6.93
2022-10-11T23:06:19.577Z,7.47
2022-10-11T23:09:30.017Z,7.13
2022-10-11T23:12:40.709Z,7.57
2022-10-11T23:15:48.095Z,8.23
2022-10-11T23:18:56.016Z,7.45
2022-10-11T23:22:01.722Z,6.10
2022-10-11T23:25:10.300Z,7.30
2022-10-11T23:28:19.092Z,7.20
2022-10-11T23:31:27.022Z,6.82
2022-10-11T23:34:35.105Z,7.28
2022-10-11T23:37:42.958Z,6.15
2022-10-11T23:40:49.431Z,6.95
2022-10-11T23:43:58.048Z,6.55
2022-10-11T23:47:04.504Z,6.05
2022-10-11T23:50:13.849Z,7.15
2022-10-11T23:53:20.458Z,7.45
2022-10-11T23:56:26.516Z,6.70
2022-10-11T23:59:34.979Z,6.85
